Shempston Farm Airstrip

GB-0746 · Scotland, 英国

罗盘
风向 的 风向 280° Shempston Farm Airstrip 1/19
风: 2 kt, 1 beaufort


2 kt
改变
0 1.000 2.000 3.000 4.000 5.000
FEW 2.000 ft
METAR EGQS 281020Z 28002KT 9999 FEW020 06/03 Q1005 NOSIG RMK BLU BLU

METAR Shempston Farm Airstrip - GB-0746

Shempston Farm Airstrip是,英国中的小机场。 该机场有一条跑道: 1/19. 该领域的国际民航组织标志是GB-0746.

这份报告是针对2022年11月28日 10:20, 当地时间在RAF Lossiemouth进行的。

机场观察

风向为280°,速度为2 kt。

可见度为10 km 或者更多。

有几云在2.000 ft的高度。 没有观察到天花板。

温度为6 °C,阵风为5 °C。 露点为3 °C,相对湿度为81%。 海平面上的气压为1005 hPa (QNH)。

白天

今天,太阳从08:25升起,在15:37降落。 这适用于Shempston Farm Airstrip,世界夏令时可能有所不同。 当地时间与世界标准时间之间的时差为+0 小时。 当前,没有夏令时有效。

公司介绍

我们没有关于这个机场的公司信息。

体会

到Vliegles.nl去找飞行课程,跳伞和其他飞行体验。 浏览页面,了解Shempston Farm Airstrip附近所有可用的活动。 你也可以使用搜索功能来寻找你所在地附近的特定飞行课程、跳伞或其他飞行体验。

跑道

Id 标题 侧风 逆风 侧风 %
1/19 010°-190° 2 kt 100 %

逆风成分最大的方向会被突出显示,并用于横风计算。 这并不一定意味着这个方向在使用。

乌云

2.000 ft FEW 几云

温度 & 天气

温度 6 °C
露点 3 °C
相对湿度 81%
风寒 5 °C
Kp-index 3 (0-9)

白天

日出
08:25
中午
12:01
日落
15:37 (4:53)

小工具

你想在你的网站上有一个关于Shempston Farm Airstrip的当前航空天气(METAR)的小部件吗?

显示HTML代码

我们和第三方通过cookies跟踪您在我们网站上的互联网行为。如果你继续,我们认为你同意我们的饼干政策